createdAt,value
2022-12-12T00:01:55.098Z,6.25
2022-12-12T00:04:21.992Z,8.00
2022-12-12T00:06:49.034Z,4.00
2022-12-12T00:09:16.036Z,9.50
2022-12-12T00:11:43.171Z,9.00
2022-12-12T00:14:10.076Z,7.00
2022-12-12T00:16:37.096Z,9.00
2022-12-12T00:19:04.019Z,7.00
2022-12-12T00:21:31.073Z,5.00
2022-12-12T00:23:58.622Z,9.75
2022-12-12T00:26:28.859Z,7.25
2022-12-12T00:28:56.862Z,4.25
2022-12-12T00:31:24.284Z,3.00
2022-12-12T00:33:51.230Z,6.50
2022-12-12T00:36:20.814Z,10.50
2022-12-12T00:38:48.115Z,12.25
2022-12-12T00:41:15.342Z,6.75
2022-12-12T00:43:42.764Z,4.25
2022-12-12T00:46:14.978Z,2.00
2022-12-12T00:48:42.435Z,1.50
2022-12-12T00:51:13.553Z,4.25
2022-12-12T00:53:40.641Z,5.50
2022-12-12T00:56:07.529Z,7.00
2022-12-12T00:58:34.537Z,7.00
2022-12-12T01:01:01.726Z,7.00
2022-12-12T01:03:28.712Z,7.75
2022-12-12T01:05:55.615Z,11.00
2022-12-12T01:08:22.600Z,9.00
2022-12-12T01:10:49.474Z,9.00
2022-12-12T01:13:16.654Z,3.50
2022-12-12T01:15:43.626Z,3.75
2022-12-12T01:18:10.664Z,7.00
2022-12-12T01:20:37.573Z,5.00
2022-12-12T01:23:04.622Z,1.00
2022-12-12T01:25:31.492Z,6.75
2022-12-12T01:27:59.549Z,8.75
2022-12-12T01:30:27.692Z,9.00
2022-12-12T01:32:54.591Z,9.00
2022-12-12T01:35:23.089Z,5.00
2022-12-12T01:37:50.242Z,8.75
2022-12-12T01:40:22.285Z,9.00
2022-12-12T01:42:49.913Z,11.00
2022-12-12T01:45:54.253Z,5.25
2022-12-12T01:48:23.789Z,8.75
2022-12-12T01:50:51.769Z,11.00
2022-12-12T01:53:19.846Z,11.50
2022-12-12T01:55:49.490Z,9.25
2022-12-12T01:58:17.089Z,9.00
2022-12-12T02:00:44.327Z,7.00
2022-12-12T02:03:11.723Z,8.00
2022-12-12T02:05:53.839Z,5.00
2022-12-12T02:08:23.338Z,6.50
2022-12-12T02:10:51.267Z,5.00
2022-12-12T02:13:26.352Z,9.75
2022-12-12T02:16:06.219Z,8.75
2022-12-12T02:18:33.253Z,9.00
2022-12-12T02:21:04.896Z,6.75
2022-12-12T02:23:34.937Z,4.75
2022-12-12T02:26:21.015Z,8.50
2022-12-12T02:29:14.160Z,9.00
2022-12-12T02:31:52.295Z,7.00
2022-12-12T02:34:35.271Z,4.00
2022-12-12T02:37:15.881Z,3.00
2022-12-12T02:40:18.363Z,3.00
2022-12-12T02:42:54.168Z,5.00
2022-12-12T02:46:04.812Z,4.00
2022-12-12T02:49:03.405Z,3.00
2022-12-12T02:51:33.443Z,5.25
2022-12-12T02:54:03.419Z,5.50
2022-12-12T02:56:42.439Z,5.50
2022-12-12T02:59:19.387Z,5.00
2022-12-12T03:01:54.375Z,3.00
2022-12-12T03:04:32.456Z,6.00
2022-12-12T03:07:33.333Z,5.00
2022-12-12T03:10:11.732Z,8.25
2022-12-12T03:13:15.872Z,5.50
2022-12-12T03:16:13.668Z,8.25
2022-12-12T03:19:09.817Z,10.50
2022-12-12T03:21:59.602Z,6.25
2022-12-12T03:24:48.964Z,9.50
2022-12-12T03:27:27.733Z,13.00
2022-12-12T03:30:15.336Z,11.50
2022-12-12T03:32:55.194Z,10.25
2022-12-12T03:35:58.999Z,11.25
2022-12-12T03:38:34.137Z,13.00
2022-12-12T03:41:05.651Z,15.00
2022-12-12T03:43:35.678Z,12.00
2022-12-12T03:46:08.108Z,8.00
2022-12-12T03:48:40.834Z,10.00
2022-12-12T03:51:14.406Z,11.00
2022-12-12T03:53:47.510Z,14.50
2022-12-12T03:56:20.481Z,9.00
2022-12-12T03:59:27.269Z,9.00
2022-12-12T04:02:03.948Z,11.00
2022-12-12T04:04:47.215Z,6.75
2022-12-12T04:07:29.247Z,6.50
2022-12-12T04:09:56.426Z,3.00
2022-12-12T04:12:37.768Z,9.00
2022-12-12T04:15:40.854Z,8.25
2022-12-12T04:18:20.798Z,5.25
2022-12-12T04:21:15.677Z,7.75
2022-12-12T04:24:00.224Z,2.75
2022-12-12T04:26:44.564Z,3.00
2022-12-12T04:29:26.573Z,7.00
2022-12-12T04:32:15.975Z,4.25
2022-12-12T04:34:52.071Z,3.00
2022-12-12T04:37:24.038Z,3.75
2022-12-12T04:39:55.201Z,3.00
2022-12-12T04:42:26.155Z,5.00
2022-12-12T04:44:59.181Z,4.25
2022-12-12T04:47:30.995Z,4.25
2022-12-12T04:50:00.848Z,4.00
2022-12-12T04:52:31.353Z,6.75
2022-12-12T04:55:11.149Z,7.00
2022-12-12T04:57:46.131Z,5.50
2022-12-12T05:00:14.230Z,8.50
2022-12-12T05:02:54.022Z,11.00
2022-12-12T05:05:39.897Z,6.75
2022-12-12T05:08:12.644Z,6.00
2022-12-12T05:10:50.851Z,3.25
2022-12-12T05:13:21.634Z,5.75
2022-12-12T05:15:51.165Z,8.75
2022-12-12T05:18:18.223Z,13.50
2022-12-12T05:20:45.088Z,10.00
2022-12-12T05:23:12.031Z,8.50
2022-12-12T05:25:39.147Z,11.00
2022-12-12T05:28:06.127Z,7.00
2022-12-12T05:30:33.475Z,8.00
2022-12-12T05:33:00.391Z,5.00
2022-12-12T05:35:27.736Z,2.75
2022-12-12T05:37:54.701Z,4.50
2022-12-12T05:40:22.455Z,6.25
2022-12-12T05:42:49.339Z,5.00
2022-12-12T05:45:16.313Z,2.75
2022-12-12T05:47:43.226Z,3.50
2022-12-12T05:50:10.598Z,4.00
2022-12-12T05:52:37.732Z,4.00
2022-12-12T05:55:05.601Z,3.00
2022-12-12T05:57:32.574Z,3.00
2022-12-12T05:59:59.522Z,5.50
2022-12-12T06:02:26.518Z,5.00
2022-12-12T06:04:53.484Z,4.50
2022-12-12T06:07:20.470Z,6.75
2022-12-12T06:09:47.313Z,4.00
2022-12-12T06:12:14.177Z,6.25
2022-12-12T06:14:41.149Z,4.50
2022-12-12T06:17:08.024Z,4.00
2022-12-12T06:19:34.970Z,8.25
2022-12-12T06:22:01.946Z,12.25
2022-12-12T06:24:28.876Z,9.00
2022-12-12T06:26:55.767Z,3.00
2022-12-12T06:29:22.902Z,3.00
2022-12-12T06:31:49.825Z,7.00
2022-12-12T06:34:16.710Z,8.00
2022-12-12T06:36:43.687Z,5.00
2022-12-12T06:39:10.685Z,10.75
2022-12-12T06:41:37.637Z,7.25
2022-12-12T06:44:04.765Z,9.25
2022-12-12T06:46:32.304Z,12.75
2022-12-12T06:48:59.733Z,7.00
2022-12-12T06:51:31.750Z,3.00
2022-12-12T06:53:59.181Z,6.75
2022-12-12T06:56:26.896Z,10.75
2022-12-12T06:58:55.946Z,7.25
2022-12-12T07:01:24.561Z,5.75
2022-12-12T07:03:52.424Z,6.00
2022-12-12T07:06:21.660Z,4.75
2022-12-12T07:08:49.689Z,3.00
2022-12-12T07:11:20.445Z,6.00
2022-12-12T07:13:48.504Z,9.00
2022-12-12T07:16:16.100Z,9.00
2022-12-12T07:18:43.164Z,7.00
2022-12-12T07:21:13.980Z,5.00
2022-12-12T07:23:41.228Z,3.00
2022-12-12T07:26:13.963Z,8.50
2022-12-12T07:28:41.566Z,5.50
2022-12-12T07:31:10.979Z,8.25
2022-12-12T07:33:44.080Z,5.50
2022-12-12T07:36:14.313Z,5.50
2022-12-12T07:38:41.858Z,3.25
2022-12-12T07:41:11.649Z,7.25
2022-12-12T07:43:43.828Z,8.50
2022-12-12T07:46:17.038Z,3.00
2022-12-12T07:48:44.621Z,6.50
2022-12-12T07:51:12.056Z,6.25
2022-12-12T07:53:39.304Z,5.00
2022-12-12T07:56:09.994Z,5.00
2022-12-12T07:58:38.116Z,4.00
2022-12-12T08:01:15.108Z,8.25
2022-12-12T08:03:44.945Z,8.50
2022-12-12T08:06:13.602Z,9.00
2022-12-12T08:08:40.619Z,5.00
2022-12-12T08:11:09.934Z,4.75
2022-12-12T08:13:38.681Z,1.00
2022-12-12T08:16:08.606Z,4.75
2022-12-12T08:18:35.822Z,5.00
2022-12-12T08:21:06.879Z,3.00
2022-12-12T08:23:34.065Z,5.00
2022-12-12T08:26:06.854Z,10.25
2022-12-12T08:28:34.085Z,9.00
2022-12-12T08:31:01.303Z,5.00
2022-12-12T08:33:28.689Z,5.00
2022-12-12T08:35:56.686Z,7.00
2022-12-12T08:38:23.920Z,8.25
2022-12-12T08:40:50.825Z,7.00
2022-12-12T08:43:17.937Z,4.25
2022-12-12T08:45:45.910Z,7.00
2022-12-12T08:48:12.954Z,9.50
2022-12-12T08:50:41.411Z,10.50
2022-12-12T08:53:08.468Z,12.25
2022-12-12T08:55:35.407Z,13.75
2022-12-12T08:58:02.374Z,6.75
2022-12-12T09:00:29.264Z,11.75
2022-12-12T09:02:56.301Z,15.00
2022-12-12T09:05:23.298Z,11.75
2022-12-12T09:07:50.699Z,10.00
2022-12-12T09:10:17.853Z,11.00
2022-12-12T09:12:44.986Z,7.25
2022-12-12T09:15:12.361Z,9.00
2022-12-12T09:17:39.540Z,6.25
2022-12-12T09:20:07.354Z,4.00
2022-12-12T09:22:34.538Z,9.25
2022-12-12T09:25:01.418Z,11.00
2022-12-12T09:27:28.686Z,9.00
2022-12-12T09:29:55.630Z,13.75
2022-12-12T09:32:24.596Z,13.25
2022-12-12T09:34:52.121Z,13.00
2022-12-12T09:37:19.136Z,6.75
2022-12-12T09:39:46.138Z,4.50
2022-12-12T09:42:47.695Z,9.25
2022-12-12T09:45:14.946Z,10.75
2022-12-12T09:47:55.824Z,9.00
2022-12-12T09:50:35.686Z,9.00
2022-12-12T09:53:12.480Z,10.00
2022-12-12T09:56:07.296Z,11.00
2022-12-12T09:58:42.148Z,7.25
2022-12-12T10:01:33.915Z,9.00
2022-12-12T10:04:24.798Z,9.25
2022-12-12T10:07:01.522Z,11.00
2022-12-12T10:09:44.829Z,11.00
2022-12-12T10:12:16.135Z,10.50
2022-12-12T10:14:48.880Z,13.25
2022-12-12T10:17:22.050Z,11.50
2022-12-12T10:19:55.935Z,8.75
2022-12-12T10:22:45.967Z,8.50
2022-12-12T10:25:23.555Z,6.75
2022-12-12T10:27:54.909Z,7.75
2022-12-12T10:30:21.956Z,7.00
2022-12-12T10:33:13.408Z,8.00
2022-12-12T10:35:52.511Z,3.00
2022-12-12T10:39:22.680Z,8.75
2022-12-12T10:42:21.930Z,13.00
2022-12-12T10:45:06.535Z,10.25
2022-12-12T10:47:34.460Z,8.00
2022-12-12T10:50:34.542Z,4.25
2022-12-12T10:53:07.747Z,4.00
2022-12-12T10:55:51.531Z,8.75
2022-12-12T10:58:18.499Z,5.00
2022-12-12T11:00:48.377Z,8.00
2022-12-12T11:03:27.379Z,8.50
2022-12-12T11:05:56.722Z,7.00
2022-12-12T11:08:32.440Z,7.75
2022-12-12T11:11:06.686Z,6.50
2022-12-12T11:13:44.621Z,4.50
2022-12-12T11:16:27.019Z,5.00
2022-12-12T11:19:24.400Z,8.50
2022-12-12T11:21:54.308Z,6.75
2022-12-12T11:24:30.910Z,6.75
2022-12-12T11:27:05.705Z,6.00
2022-12-12T11:29:49.855Z,4.75
2022-12-12T11:32:26.755Z,3.00
2022-12-12T11:34:59.843Z,5.25
2022-12-12T11:37:34.109Z,6.25
2022-12-12T11:40:01.287Z,5.00
2022-12-12T11:42:30.623Z,6.75
2022-12-12T11:45:04.713Z,3.00
2022-12-12T11:47:39.968Z,3.25
2022-12-12T11:50:25.579Z,5.00
2022-12-12T11:52:55.282Z,11.00
2022-12-12T11:55:54.075Z,5.50
2022-12-12T11:58:36.717Z,6.50
2022-12-12T12:01:11.044Z,9.00
2022-12-12T12:03:40.859Z,11.50
2022-12-12T12:06:38.559Z,9.00
2022-12-12T12:09:08.426Z,7.00
2022-12-12T12:11:44.541Z,7.00
2022-12-12T12:14:27.931Z,7.00
2022-12-12T12:17:15.672Z,5.00
2022-12-12T12:19:53.521Z,7.25
2022-12-12T12:22:29.294Z,7.00
2022-12-12T12:25:43.886Z,5.25
2022-12-12T12:28:29.087Z,8.50
2022-12-12T12:31:15.932Z,8.00
2022-12-12T12:34:16.920Z,7.00
2022-12-12T12:37:01.820Z,9.00
2022-12-12T12:40:06.370Z,7.00
2022-12-12T12:42:51.725Z,4.00
2022-12-12T12:45:54.320Z,7.75
2022-12-12T12:48:33.090Z,9.00
2022-12-12T12:51:10.673Z,10.50
2022-12-12T12:54:01.168Z,10.00
2022-12-12T12:56:31.459Z,9.00
2022-12-12T12:59:04.481Z,5.00
2022-12-12T13:01:39.366Z,4.25
2022-12-12T13:04:21.301Z,5.00
2022-12-12T13:07:47.048Z,6.00
2022-12-12T13:10:22.315Z,7.50
2022-12-12T13:13:06.452Z,5.00
2022-12-12T13:15:46.522Z,2.25
2022-12-12T13:18:16.227Z,7.00
2022-12-12T13:20:50.961Z,5.00
2022-12-12T13:23:33.283Z,3.00
2022-12-12T13:26:00.213Z,3.00
2022-12-12T13:28:34.500Z,7.00
2022-12-12T13:31:26.007Z,4.00
2022-12-12T13:34:06.196Z,5.75
2022-12-12T13:36:40.009Z,11.75
2022-12-12T13:39:08.844Z,9.50
2022-12-12T13:41:56.289Z,9.00
2022-12-12T13:44:48.043Z,5.25
2022-12-12T13:47:22.488Z,3.00
2022-12-12T13:49:53.509Z,4.50
2022-12-12T13:52:34.749Z,9.00
2022-12-12T13:55:11.565Z,10.00
2022-12-12T13:58:17.194Z,7.25
2022-12-12T14:00:44.663Z,5.50
2022-12-12T14:03:11.850Z,9.00
2022-12-12T14:05:40.100Z,12.25
2022-12-12T14:08:13.140Z,14.00
2022-12-12T14:10:43.432Z,14.00
2022-12-12T14:13:22.466Z,11.50
2022-12-12T14:15:58.679Z,5.75
2022-12-12T14:18:34.197Z,8.50
2022-12-12T14:21:05.787Z,7.75
2022-12-12T14:23:42.137Z,7.00
2022-12-12T14:26:28.181Z,4.50
2022-12-12T14:29:16.866Z,3.00
2022-12-12T14:32:13.638Z,5.75
2022-12-12T14:34:56.036Z,6.75
2022-12-12T14:37:38.334Z,4.00
2022-12-12T14:40:17.391Z,4.00
2022-12-12T14:43:17.803Z,7.00
2022-12-12T14:45:49.476Z,7.00
2022-12-12T14:48:19.428Z,3.50
2022-12-12T14:50:55.324Z,3.00
2022-12-12T14:53:32.094Z,5.75
2022-12-12T14:56:35.660Z,5.00
2022-12-12T14:59:09.596Z,5.00
2022-12-12T15:01:44.310Z,7.00
2022-12-12T15:04:18.720Z,5.00
2022-12-12T15:06:51.322Z,7.00
2022-12-12T15:09:25.334Z,7.00
2022-12-12T15:11:54.903Z,7.00
2022-12-12T15:14:25.616Z,5.00
2022-12-12T15:16:59.464Z,8.50
2022-12-12T15:19:35.320Z,9.00
2022-12-12T15:22:09.709Z,6.50
2022-12-12T15:24:39.417Z,3.50
2022-12-12T15:27:06.979Z,2.00
2022-12-12T15:29:37.594Z,3.25
2022-12-12T15:32:09.120Z,3.00
2022-12-12T15:34:40.055Z,4.00
2022-12-12T15:37:21.257Z,7.50
2022-12-12T15:40:12.827Z,7.00
2022-12-12T15:42:45.321Z,4.00
2022-12-12T15:45:19.923Z,7.75
2022-12-12T15:47:47.094Z,7.00
2022-12-12T15:50:23.851Z,9.00
2022-12-12T15:53:03.697Z,9.00
2022-12-12T15:55:31.298Z,4.75
2022-12-12T15:57:58.866Z,2.25
2022-12-12T16:00:31.655Z,3.00
2022-12-12T16:03:04.554Z,4.00
2022-12-12T16:05:36.052Z,3.00
2022-12-12T16:08:32.616Z,7.00
2022-12-12T16:11:02.797Z,7.50
2022-12-12T16:13:42.079Z,5.00
2022-12-12T16:16:44.607Z,7.50
2022-12-12T16:19:33.107Z,7.00
2022-12-12T16:22:38.915Z,4.00
2022-12-12T16:25:16.644Z,5.00
2022-12-12T16:27:44.253Z,4.00
2022-12-12T16:30:15.676Z,5.75
2022-12-12T16:32:43.468Z,7.00
2022-12-12T16:35:22.257Z,7.00
2022-12-12T16:37:49.931Z,3.00
2022-12-12T16:40:19.373Z,5.50
2022-12-12T16:42:56.668Z,4.00
2022-12-12T16:45:23.736Z,3.00
2022-12-12T16:47:50.672Z,6.00
2022-12-12T16:50:17.760Z,4.25
2022-12-12T16:52:44.625Z,3.00
2022-12-12T16:55:21.293Z,3.00
2022-12-12T16:57:48.309Z,7.50
2022-12-12T17:00:18.036Z,8.00
2022-12-12T17:02:45.467Z,7.00
2022-12-12T17:05:20.030Z,5.00
2022-12-12T17:07:47.099Z,6.00
2022-12-12T17:10:15.718Z,4.75
2022-12-12T17:12:44.134Z,8.00
2022-12-12T17:15:17.632Z,8.75
2022-12-12T17:17:44.635Z,6.50
2022-12-12T17:20:12.030Z,5.50
2022-12-12T17:22:39.618Z,7.00
2022-12-12T17:25:07.641Z,6.25
2022-12-12T17:27:35.540Z,6.00
2022-12-12T17:30:02.928Z,7.25
2022-12-12T17:32:30.081Z,5.00
2022-12-12T17:34:57.179Z,9.00
2022-12-12T17:37:24.269Z,11.00
2022-12-12T17:39:51.327Z,4.75
2022-12-12T17:42:18.469Z,5.00
2022-12-12T17:44:45.367Z,4.50
2022-12-12T17:47:12.368Z,6.75
2022-12-12T17:49:39.298Z,3.50
2022-12-12T17:52:06.339Z,5.00
2022-12-12T17:54:33.178Z,7.00
2022-12-12T17:57:00.230Z,6.00
2022-12-12T17:59:27.123Z,4.75
2022-12-12T18:01:54.920Z,7.00
2022-12-12T18:04:28.123Z,6.50
2022-12-12T18:06:55.826Z,5.00
2022-12-12T18:09:22.794Z,8.00
2022-12-12T18:11:50.477Z,5.75
2022-12-12T18:14:17.627Z,3.00
2022-12-12T18:16:47.430Z,3.00
2022-12-12T18:19:14.613Z,2.75
2022-12-12T18:24:28.687Z,3.25
2022-12-12T18:26:57.751Z,3.00
2022-12-12T18:29:26.357Z,5.00
2022-12-12T18:31:53.843Z,7.00
2022-12-12T18:34:21.670Z,3.50
2022-12-12T18:36:48.976Z,3.00
2022-12-12T18:39:16.406Z,2.50
2022-12-12T18:41:43.438Z,0.00
2022-12-12T18:44:14.153Z,1.00
2022-12-12T18:46:43.671Z,2.00
2022-12-12T18:49:13.605Z,1.00
2022-12-12T18:51:41.709Z,2.00
2022-12-12T18:54:14.483Z,1.00
2022-12-12T18:56:43.561Z,1.00
2022-12-12T18:59:10.816Z,3.25
2022-12-12T19:01:38.105Z,3.00
2022-12-12T19:04:12.236Z,5.00
2022-12-12T19:06:42.288Z,4.00
2022-12-12T19:09:17.289Z,6.00
2022-12-12T19:11:44.803Z,5.25
2022-12-12T19:14:13.702Z,3.00
2022-12-12T19:16:41.217Z,3.00
2022-12-12T19:19:08.539Z,0.75
2022-12-12T19:21:36.478Z,4.75
2022-12-12T19:24:03.707Z,7.50
2022-12-12T19:26:30.845Z,5.50
2022-12-12T19:28:59.756Z,3.00
2022-12-12T19:31:27.549Z,3.00
2022-12-12T19:33:54.510Z,3.00
2022-12-12T19:36:24.716Z,2.25
2022-12-12T19:38:53.436Z,3.00
2022-12-12T19:41:22.147Z,3.00
2022-12-12T19:43:50.805Z,3.75
2022-12-12T19:46:29.060Z,8.00
2022-12-12T19:49:01.169Z,3.25
2022-12-12T19:51:30.217Z,5.00
2022-12-12T19:53:59.139Z,3.00
2022-12-12T19:56:31.627Z,4.75
2022-12-12T19:59:00.238Z,3.00
2022-12-12T20:01:30.464Z,5.25
2022-12-12T20:03:59.922Z,3.00
2022-12-12T20:06:27.575Z,3.00
2022-12-12T20:08:54.664Z,3.25
2022-12-12T20:11:23.440Z,4.50
2022-12-12T20:13:56.529Z,3.50
2022-12-12T20:16:27.885Z,7.00
2022-12-12T20:18:56.272Z,5.75
2022-12-12T20:21:59.340Z,2.25
2022-12-12T20:24:14.375Z,2.25
2022-12-12T20:26:41.386Z,3.00
2022-12-12T20:29:09.384Z,3.00
2022-12-12T20:31:38.244Z,2.00
2022-12-12T20:34:05.299Z,2.75
2022-12-12T20:36:35.386Z,3.00
2022-12-12T20:39:05.447Z,3.00
2022-12-12T20:41:36.844Z,1.00
2022-12-12T20:44:05.300Z,3.00
2022-12-12T20:46:35.025Z,6.50
2022-12-12T20:49:06.010Z,5.00
2022-12-12T20:54:20.204Z,3.00
2022-12-12T20:56:49.128Z,4.25
2022-12-12T20:59:16.401Z,8.00
2022-12-12T21:01:43.431Z,9.00
2022-12-12T21:06:39.959Z,3.50
2022-12-12T21:09:09.287Z,8.25
2022-12-12T21:11:37.352Z,5.50
2022-12-12T21:14:05.071Z,7.00
2022-12-12T21:16:35.205Z,8.00
2022-12-12T21:19:08.525Z,5.00
2022-12-12T21:21:35.681Z,3.00
2022-12-12T21:24:02.584Z,5.25
2022-12-12T21:26:31.180Z,5.00
2022-12-12T21:28:59.460Z,4.00
2022-12-12T21:31:29.761Z,3.00
2022-12-12T21:33:57.635Z,1.25
2022-12-12T21:36:26.185Z,3.25
2022-12-12T21:38:55.028Z,5.00
2022-12-12T21:41:23.364Z,3.00
2022-12-12T21:43:52.555Z,3.75
2022-12-12T21:46:24.771Z,3.25
2022-12-12T21:48:52.856Z,3.00
2022-12-12T21:51:19.717Z,9.25
2022-12-12T21:53:46.643Z,7.00
2022-12-12T21:56:16.352Z,7.75
2022-12-12T21:58:45.593Z,9.00
2022-12-12T22:01:18.351Z,8.00
2022-12-12T22:03:47.738Z,8.75
2022-12-12T22:06:17.852Z,11.00
2022-12-12T22:08:45.763Z,10.50
2022-12-12T22:11:14.045Z,4.50
2022-12-12T22:14:01.172Z,3.00
2022-12-12T22:16:28.158Z,8.25
2022-12-12T22:18:55.421Z,5.75
2022-12-12T22:21:23.758Z,9.00
2022-12-12T22:23:53.268Z,10.00
2022-12-12T22:26:23.789Z,6.00
2022-12-12T22:28:53.209Z,5.25
2022-12-12T22:31:22.110Z,6.75
2022-12-12T22:33:49.641Z,6.00
2022-12-12T22:36:20.032Z,4.75
2022-12-12T22:38:47.040Z,3.00
2022-12-12T22:41:13.987Z,3.00
2022-12-12T22:43:40.884Z,5.25
2022-12-12T22:46:08.036Z,5.00
2022-12-12T22:48:35.827Z,4.00
2022-12-12T22:51:13.990Z,3.00
2022-12-12T22:53:44.403Z,1.50
2022-12-12T22:56:13.151Z,4.50
2022-12-12T22:58:41.099Z,2.00
2022-12-12T23:01:14.464Z,2.50
2022-12-12T23:03:42.231Z,6.50
2022-12-12T23:06:14.948Z,5.75
2022-12-12T23:08:42.957Z,2.00
2022-12-12T23:11:15.531Z,4.50
2022-12-12T23:13:44.696Z,3.25
2022-12-12T23:16:15.009Z,3.50
2022-12-12T23:18:42.592Z,5.00
2022-12-12T23:21:16.774Z,3.00
2022-12-12T23:23:45.454Z,2.00
2022-12-12T23:26:15.238Z,1.00
2022-12-12T23:28:43.439Z,3.00
2022-12-12T23:31:15.830Z,1.75
2022-12-12T23:33:42.857Z,3.00
2022-12-12T23:36:11.842Z,1.00
2022-12-12T23:38:39.349Z,5.00
2022-12-12T23:41:08.475Z,1.00
2022-12-12T23:43:35.811Z,1.00
2022-12-12T23:46:04.507Z,1.00
2022-12-12T23:48:32.520Z,3.25
2022-12-12T23:50:59.803Z,3.50
2022-12-12T23:53:30.720Z,1.00
2022-12-12T23:56:02.619Z,5.00
2022-12-12T23:58:29.617Z,4.00
